sensor_id;sensor_type;location;lat;lon;timestamp;P1;durP1;ratioP1;P2;durP2;ratioP2
43529;SDS011;55654;50.966;6.878;2023-05-28T00:00:39;11.47;;;5.70;;
43529;SDS011;55654;50.966;6.878;2023-05-28T00:03:05;10.87;;;6.20;;
43529;SDS011;55654;50.966;6.878;2023-05-28T00:05:31;12.33;;;5.73;;
43529;SDS011;55654;50.966;6.878;2023-05-28T00:08:12;15.93;;;6.10;;
43529;SDS011;55654;50.966;6.878;2023-05-28T00:10:41;17.27;;;6.90;;
43529;SDS011;55654;50.966;6.878;2023-05-28T00:13:10;12.20;;;6.53;;
43529;SDS011;55654;50.966;6.878;2023-05-28T00:15:39;10.57;;;6.10;;
43529;SDS011;55654;50.966;6.878;2023-05-28T00:18:05;14.60;;;6.90;;
43529;SDS011;55654;50.966;6.878;2023-05-28T00:20:41;15.33;;;7.27;;
43529;SDS011;55654;50.966;6.878;2023-05-28T00:23:07;16.43;;;7.43;;
43529;SDS011;55654;50.966;6.878;2023-05-28T00:25:35;13.70;;;7.10;;
43529;SDS011;55654;50.966;6.878;2023-05-28T00:28:09;9.83;;;6.33;;
43529;SDS011;55654;50.966;6.878;2023-05-28T00:30:37;13.93;;;6.90;;
43529;SDS011;55654;50.966;6.878;2023-05-28T00:33:03;13.10;;;6.20;;
43529;SDS011;55654;50.966;6.878;2023-05-28T00:35:32;13.67;;;6.67;;
43529;SDS011;55654;50.966;6.878;2023-05-28T00:37:58;17.90;;;7.17;;
43529;SDS011;55654;50.966;6.878;2023-05-28T00:40:28;13.43;;;7.10;;
43529;SDS011;55654;50.966;6.878;2023-05-28T00:42:54;11.73;;;6.97;;
43529;SDS011;55654;50.966;6.878;2023-05-28T00:45:26;16.13;;;7.67;;
43529;SDS011;55654;50.966;6.878;2023-05-28T00:47:51;17.03;;;7.27;;
43529;SDS011;55654;50.966;6.878;2023-05-28T00:50:17;18.10;;;7.57;;
43529;SDS011;55654;50.966;6.878;2023-05-28T00:52:46;15.57;;;6.60;;
43529;SDS011;55654;50.966;6.878;2023-05-28T00:55:17;13.07;;;6.70;;
43529;SDS011;55654;50.966;6.878;2023-05-28T00:57:43;19.07;;;8.13;;
43529;SDS011;55654;50.966;6.878;2023-05-28T01:00:11;11.20;;;5.73;;
43529;SDS011;55654;50.966;6.878;2023-05-28T01:02:43;13.32;;;6.40;;
43529;SDS011;55654;50.966;6.878;2023-05-28T01:05:12;11.47;;;6.57;;
43529;SDS011;55654;50.966;6.878;2023-05-28T01:07:40;14.73;;;7.17;;
43529;SDS011;55654;50.966;6.878;2023-05-28T01:10:19;13.20;;;6.77;;
43529;SDS011;55654;50.966;6.878;2023-05-28T01:12:47;15.07;;;7.43;;
43529;SDS011;55654;50.966;6.878;2023-05-28T01:15:17;19.43;;;7.13;;
43529;SDS011;55654;50.966;6.878;2023-05-28T01:17:43;17.17;;;7.03;;
43529;SDS011;55654;50.966;6.878;2023-05-28T01:20:16;15.93;;;6.93;;
43529;SDS011;55654;50.966;6.878;2023-05-28T01:22:50;11.67;;;6.73;;
43529;SDS011;55654;50.966;6.878;2023-05-28T01:25:25;17.73;;;7.40;;
43529;SDS011;55654;50.966;6.878;2023-05-28T01:27:51;13.83;;;6.90;;
43529;SDS011;55654;50.966;6.878;2023-05-28T01:30:19;12.50;;;6.50;;
43529;SDS011;55654;50.966;6.878;2023-05-28T01:32:48;13.30;;;6.53;;
43529;SDS011;55654;50.966;6.878;2023-05-28T01:35:13;16.57;;;7.03;;
43529;SDS011;55654;50.966;6.878;2023-05-28T01:37:50;20.13;;;7.83;;
43529;SDS011;55654;50.966;6.878;2023-05-28T01:40:18;13.10;;;6.73;;
43529;SDS011;55654;50.966;6.878;2023-05-28T01:42:48;11.00;;;6.73;;
43529;SDS011;55654;50.966;6.878;2023-05-28T01:45:16;10.63;;;6.33;;
43529;SDS011;55654;50.966;6.878;2023-05-28T01:47:43;12.70;;;7.00;;
43529;SDS011;55654;50.966;6.878;2023-05-28T01:50:09;12.20;;;6.47;;
43529;SDS011;55654;50.966;6.878;2023-05-28T01:52:35;13.37;;;6.20;;
43529;SDS011;55654;50.966;6.878;2023-05-28T01:55:01;12.37;;;5.97;;
43529;SDS011;55654;50.966;6.878;2023-05-28T01:57:27;18.70;;;6.47;;
43529;SDS011;55654;50.966;6.878;2023-05-28T01:59:53;13.40;;;7.30;;
43529;SDS011;55654;50.966;6.878;2023-05-28T02:02:18;14.00;;;7.07;;
43529;SDS011;55654;50.966;6.878;2023-05-28T02:04:53;11.50;;;6.50;;
43529;SDS011;55654;50.966;6.878;2023-05-28T02:07:19;14.27;;;6.80;;
43529;SDS011;55654;50.966;6.878;2023-05-28T02:09:47;12.70;;;6.17;;
43529;SDS011;55654;50.966;6.878;2023-05-28T02:12:15;13.47;;;6.67;;
43529;SDS011;55654;50.966;6.878;2023-05-28T02:14:43;13.43;;;7.70;;
43529;SDS011;55654;50.966;6.878;2023-05-28T02:17:09;14.50;;;7.40;;
43529;SDS011;55654;50.966;6.878;2023-05-28T02:19:36;12.07;;;6.77;;
43529;SDS011;55654;50.966;6.878;2023-05-28T02:22:04;16.97;;;6.87;;
43529;SDS011;55654;50.966;6.878;2023-05-28T02:24:38;14.77;;;7.50;;
43529;SDS011;55654;50.966;6.878;2023-05-28T02:27:06;12.20;;;6.80;;
43529;SDS011;55654;50.966;6.878;2023-05-28T02:29:35;13.27;;;6.53;;
43529;SDS011;55654;50.966;6.878;2023-05-28T02:32:03;12.60;;;7.17;;
43529;SDS011;55654;50.966;6.878;2023-05-28T02:34:36;12.87;;;7.13;;
43529;SDS011;55654;50.966;6.878;2023-05-28T02:37:03;14.27;;;6.87;;
43529;SDS011;55654;50.966;6.878;2023-05-28T02:39:29;15.70;;;6.97;;
43529;SDS011;55654;50.966;6.878;2023-05-28T02:41:54;14.43;;;7.43;;
43529;SDS011;55654;50.966;6.878;2023-05-28T02:44:25;13.77;;;6.77;;
43529;SDS011;55654;50.966;6.878;2023-05-28T02:46:56;14.03;;;6.60;;
43529;SDS011;55654;50.966;6.878;2023-05-28T02:49:24;11.70;;;6.30;;
43529;SDS011;55654;50.966;6.878;2023-05-28T02:51:54;14.80;;;7.10;;
43529;SDS011;55654;50.966;6.878;2023-05-28T02:54:22;16.23;;;7.30;;
43529;SDS011;55654;50.966;6.878;2023-05-28T02:56:57;9.67;;;6.77;;
43529;SDS011;55654;50.966;6.878;2023-05-28T02:59:30;13.03;;;7.03;;
43529;SDS011;55654;50.966;6.878;2023-05-28T03:01:55;14.37;;;6.70;;
43529;SDS011;55654;50.966;6.878;2023-05-28T03:04:23;9.70;;;6.03;;
43529;SDS011;55654;50.966;6.878;2023-05-28T03:06:50;24.70;;;7.37;;
43529;SDS011;55654;50.966;6.878;2023-05-28T03:09:17;12.77;;;7.20;;
43529;SDS011;55654;50.966;6.878;2023-05-28T03:11:50;12.67;;;6.63;;
43529;SDS011;55654;50.966;6.878;2023-05-28T03:14:19;13.07;;;6.80;;
43529;SDS011;55654;50.966;6.878;2023-05-28T03:16:49;13.47;;;7.33;;
43529;SDS011;55654;50.966;6.878;2023-05-28T03:19:20;13.43;;;6.73;;
43529;SDS011;55654;50.966;6.878;2023-05-28T03:21:48;14.60;;;7.10;;
43529;SDS011;55654;50.966;6.878;2023-05-28T03:24:14;10.20;;;6.37;;
43529;SDS011;55654;50.966;6.878;2023-05-28T03:26:42;14.83;;;7.07;;
43529;SDS011;55654;50.966;6.878;2023-05-28T03:29:08;12.37;;;7.30;;
43529;SDS011;55654;50.966;6.878;2023-05-28T03:31:46;14.23;;;6.40;;
43529;SDS011;55654;50.966;6.878;2023-05-28T03:34:12;14.03;;;6.90;;
43529;SDS011;55654;50.966;6.878;2023-05-28T03:36:41;12.67;;;6.80;;
43529;SDS011;55654;50.966;6.878;2023-05-28T03:39:09;11.77;;;6.70;;
43529;SDS011;55654;50.966;6.878;2023-05-28T03:41:38;10.93;;;6.57;;
43529;SDS011;55654;50.966;6.878;2023-05-28T03:44:06;12.53;;;6.50;;
43529;SDS011;55654;50.966;6.878;2023-05-28T03:46:32;11.27;;;6.60;;
43529;SDS011;55654;50.966;6.878;2023-05-28T03:48:58;11.27;;;6.90;;
43529;SDS011;55654;50.966;6.878;2023-05-28T03:51:26;12.47;;;7.57;;
43529;SDS011;55654;50.966;6.878;2023-05-28T03:53:54;12.93;;;7.23;;
43529;SDS011;55654;50.966;6.878;2023-05-28T03:56:20;11.87;;;7.03;;
43529;SDS011;55654;50.966;6.878;2023-05-28T03:58:45;11.50;;;6.33;;
43529;SDS011;55654;50.966;6.878;2023-05-28T04:01:11;12.60;;;7.10;;
43529;SDS011;55654;50.966;6.878;2023-05-28T04:03:37;11.90;;;6.93;;
43529;SDS011;55654;50.966;6.878;2023-05-28T04:06:05;14.23;;;6.63;;
43529;SDS011;55654;50.966;6.878;2023-05-28T04:08:36;12.57;;;6.27;;
43529;SDS011;55654;50.966;6.878;2023-05-28T04:11:22;12.93;;;7.10;;
43529;SDS011;55654;50.966;6.878;2023-05-28T04:13:49;11.30;;;6.77;;
43529;SDS011;55654;50.966;6.878;2023-05-28T04:16:23;12.17;;;6.77;;
43529;SDS011;55654;50.966;6.878;2023-05-28T04:18:53;12.97;;;7.13;;
43529;SDS011;55654;50.966;6.878;2023-05-28T04:21:24;13.87;;;7.30;;
43529;SDS011;55654;50.966;6.878;2023-05-28T04:23:49;13.20;;;6.93;;
43529;SDS011;55654;50.966;6.878;2023-05-28T04:26:16;12.93;;;7.17;;
43529;SDS011;55654;50.966;6.878;2023-05-28T04:28:45;11.63;;;7.33;;
43529;SDS011;55654;50.966;6.878;2023-05-28T04:31:14;11.57;;;6.47;;
43529;SDS011;55654;50.966;6.878;2023-05-28T04:33:44;13.37;;;7.00;;
43529;SDS011;55654;50.966;6.878;2023-05-28T04:36:11;14.73;;;7.33;;
43529;SDS011;55654;50.966;6.878;2023-05-28T04:38:38;15.23;;;7.67;;
43529;SDS011;55654;50.966;6.878;2023-05-28T04:41:07;15.00;;;7.87;;
43529;SDS011;55654;50.966;6.878;2023-05-28T04:43:42;16.38;;;8.35;;
43529;SDS011;55654;50.966;6.878;2023-05-28T04:46:08;13.80;;;7.30;;
43529;SDS011;55654;50.966;6.878;2023-05-28T04:48:36;15.77;;;7.53;;
43529;SDS011;55654;50.966;6.878;2023-05-28T04:51:02;14.97;;;7.70;;
43529;SDS011;55654;50.966;6.878;2023-05-28T04:53:31;11.73;;;7.83;;
43529;SDS011;55654;50.966;6.878;2023-05-28T04:56:05;14.70;;;7.47;;
43529;SDS011;55654;50.966;6.878;2023-05-28T04:58:34;9.83;;;7.27;;
43529;SDS011;55654;50.966;6.878;2023-05-28T05:01:00;13.63;;;7.40;;
43529;SDS011;55654;50.966;6.878;2023-05-28T05:03:30;13.40;;;7.60;;
43529;SDS011;55654;50.966;6.878;2023-05-28T05:05:59;14.23;;;7.23;;
43529;SDS011;55654;50.966;6.878;2023-05-28T05:08:25;14.13;;;7.70;;
43529;SDS011;55654;50.966;6.878;2023-05-28T05:10:55;12.73;;;6.50;;
43529;SDS011;55654;50.966;6.878;2023-05-28T05:13:23;13.27;;;8.03;;
43529;SDS011;55654;50.966;6.878;2023-05-28T05:15:51;12.87;;;7.80;;
43529;SDS011;55654;50.966;6.878;2023-05-28T05:18:20;17.97;;;8.73;;
43529;SDS011;55654;50.966;6.878;2023-05-28T05:20:48;18.20;;;8.40;;
43529;SDS011;55654;50.966;6.878;2023-05-28T05:23:13;12.97;;;7.80;;
43529;SDS011;55654;50.966;6.878;2023-05-28T05:25:39;16.90;;;7.17;;
43529;SDS011;55654;50.966;6.878;2023-05-28T05:28:05;13.47;;;7.53;;
43529;SDS011;55654;50.966;6.878;2023-05-28T05:30:31;17.53;;;7.17;;
43529;SDS011;55654;50.966;6.878;2023-05-28T05:32:56;14.53;;;7.93;;
43529;SDS011;55654;50.966;6.878;2023-05-28T05:35:24;12.67;;;7.17;;
43529;SDS011;55654;50.966;6.878;2023-05-28T05:37:50;16.00;;;8.13;;
43529;SDS011;55654;50.966;6.878;2023-05-28T05:40:16;14.33;;;7.47;;
43529;SDS011;55654;50.966;6.878;2023-05-28T05:42:47;15.53;;;7.43;;
43529;SDS011;55654;50.966;6.878;2023-05-28T05:45:15;14.43;;;8.53;;
43529;SDS011;55654;50.966;6.878;2023-05-28T05:47:40;16.10;;;8.13;;
43529;SDS011;55654;50.966;6.878;2023-05-28T05:50:06;15.87;;;8.17;;
43529;SDS011;55654;50.966;6.878;2023-05-28T05:52:32;16.87;;;7.90;;
43529;SDS011;55654;50.966;6.878;2023-05-28T05:55:03;12.23;;;7.40;;
43529;SDS011;55654;50.966;6.878;2023-05-28T05:57:35;16.37;;;8.43;;
43529;SDS011;55654;50.966;6.878;2023-05-28T06:00:05;14.77;;;8.70;;
43529;SDS011;55654;50.966;6.878;2023-05-28T06:02:33;14.98;;;7.90;;
43529;SDS011;55654;50.966;6.878;2023-05-28T06:05:01;14.80;;;8.13;;
43529;SDS011;55654;50.966;6.878;2023-05-28T06:07:32;15.48;;;9.32;;
43529;SDS011;55654;50.966;6.878;2023-05-28T06:10:06;18.90;;;8.80;;
43529;SDS011;55654;50.966;6.878;2023-05-28T06:12:35;16.53;;;9.43;;
43529;SDS011;55654;50.966;6.878;2023-05-28T06:15:03;17.47;;;8.60;;
43529;SDS011;55654;50.966;6.878;2023-05-28T06:17:30;14.53;;;7.90;;
43529;SDS011;55654;50.966;6.878;2023-05-28T06:19:58;21.37;;;9.13;;
43529;SDS011;55654;50.966;6.878;2023-05-28T06:22:32;15.53;;;8.00;;
43529;SDS011;55654;50.966;6.878;2023-05-28T06:25:02;15.43;;;7.93;;
43529;SDS011;55654;50.966;6.878;2023-05-28T06:27:28;14.67;;;7.23;;
43529;SDS011;55654;50.966;6.878;2023-05-28T06:29:56;12.20;;;7.17;;
43529;SDS011;55654;50.966;6.878;2023-05-28T06:32:35;16.83;;;7.17;;
43529;SDS011;55654;50.966;6.878;2023-05-28T06:35:08;13.17;;;6.90;;
43529;SDS011;55654;50.966;6.878;2023-05-28T06:37:41;13.93;;;6.70;;
43529;SDS011;55654;50.966;6.878;2023-05-28T06:40:09;9.77;;;6.27;;
43529;SDS011;55654;50.966;6.878;2023-05-28T06:42:36;15.93;;;6.70;;
43529;SDS011;55654;50.966;6.878;2023-05-28T06:45:05;15.43;;;6.70;;
43529;SDS011;55654;50.966;6.878;2023-05-28T06:47:31;12.77;;;6.03;;
43529;SDS011;55654;50.966;6.878;2023-05-28T06:49:57;9.07;;;5.70;;
43529;SDS011;55654;50.966;6.878;2023-05-28T06:52:30;13.13;;;5.83;;
43529;SDS011;55654;50.966;6.878;2023-05-28T06:54:58;11.20;;;5.50;;
43529;SDS011;55654;50.966;6.878;2023-05-28T06:57:26;13.90;;;6.50;;
43529;SDS011;55654;50.966;6.878;2023-05-28T06:59:54;17.73;;;7.17;;
43529;SDS011;55654;50.966;6.878;2023-05-28T07:02:20;12.50;;;5.90;;
43529;SDS011;55654;50.966;6.878;2023-05-28T07:04:55;12.77;;;5.47;;
43529;SDS011;55654;50.966;6.878;2023-05-28T07:07:23;14.13;;;6.20;;
43529;SDS011;55654;50.966;6.878;2023-05-28T07:09:53;11.83;;;6.13;;
43529;SDS011;55654;50.966;6.878;2023-05-28T07:12:19;13.30;;;5.57;;
43529;SDS011;55654;50.966;6.878;2023-05-28T07:15:14;12.23;;;5.73;;
43529;SDS011;55654;50.966;6.878;2023-05-28T07:17:40;12.87;;;5.83;;
43529;SDS011;55654;50.966;6.878;2023-05-28T07:20:16;11.37;;;6.67;;
43529;SDS011;55654;50.966;6.878;2023-05-28T07:22:42;12.50;;;5.90;;
43529;SDS011;55654;50.966;6.878;2023-05-28T07:25:10;14.40;;;5.73;;
43529;SDS011;55654;50.966;6.878;2023-05-28T07:27:38;11.97;;;5.50;;
43529;SDS011;55654;50.966;6.878;2023-05-28T07:30:04;11.67;;;5.97;;
43529;SDS011;55654;50.966;6.878;2023-05-28T07:32:33;11.00;;;5.63;;
43529;SDS011;55654;50.966;6.878;2023-05-28T07:34:59;13.33;;;5.30;;
43529;SDS011;55654;50.966;6.878;2023-05-28T07:37:24;14.45;;;5.40;;
43529;SDS011;55654;50.966;6.878;2023-05-28T07:39:58;9.77;;;5.13;;
43529;SDS011;55654;50.966;6.878;2023-05-28T07:42:26;10.87;;;5.40;;
43529;SDS011;55654;50.966;6.878;2023-05-28T07:45:02;12.77;;;5.37;;
43529;SDS011;55654;50.966;6.878;2023-05-28T07:47:28;13.47;;;5.80;;
43529;SDS011;55654;50.966;6.878;2023-05-28T07:49:55;14.47;;;4.90;;
43529;SDS011;55654;50.966;6.878;2023-05-28T07:52:20;15.43;;;5.63;;
43529;SDS011;55654;50.966;6.878;2023-05-28T07:54:54;17.17;;;5.53;;
43529;SDS011;55654;50.966;6.878;2023-05-28T07:57:22;12.75;;;5.10;;
43529;SDS011;55654;50.966;6.878;2023-05-28T07:59:47;12.30;;;5.32;;
43529;SDS011;55654;50.966;6.878;2023-05-28T08:02:13;11.75;;;5.88;;
43529;SDS011;55654;50.966;6.878;2023-05-28T08:04:39;13.88;;;5.30;;
43529;SDS011;55654;50.966;6.878;2023-05-28T08:07:05;10.88;;;4.75;;
43529;SDS011;55654;50.966;6.878;2023-05-28T08:09:31;13.45;;;5.20;;
43529;SDS011;55654;50.966;6.878;2023-05-28T08:11:57;12.00;;;4.55;;
43529;SDS011;55654;50.966;6.878;2023-05-28T08:14:24;9.32;;;4.65;;
43529;SDS011;55654;50.966;6.878;2023-05-28T08:16:50;9.05;;;4.22;;
43529;SDS011;55654;50.966;6.878;2023-05-28T08:19:16;11.00;;;4.85;;
43529;SDS011;55654;50.966;6.878;2023-05-28T08:21:41;8.23;;;3.95;;
43529;SDS011;55654;50.966;6.878;2023-05-28T08:24:07;9.77;;;4.55;;
43529;SDS011;55654;50.966;6.878;2023-05-28T08:26:35;10.43;;;3.95;;
43529;SDS011;55654;50.966;6.878;2023-05-28T08:29:00;9.48;;;4.03;;
43529;SDS011;55654;50.966;6.878;2023-05-28T08:31:27;7.35;;;3.88;;
43529;SDS011;55654;50.966;6.878;2023-05-28T08:33:53;9.27;;;4.28;;
43529;SDS011;55654;50.966;6.878;2023-05-28T08:36:18;8.93;;;4.40;;
43529;SDS011;55654;50.966;6.878;2023-05-28T08:38:45;11.38;;;4.72;;
43529;SDS011;55654;50.966;6.878;2023-05-28T08:41:11;10.27;;;4.10;;
43529;SDS011;55654;50.966;6.878;2023-05-28T08:43:37;7.80;;;3.47;;
43529;SDS011;55654;50.966;6.878;2023-05-28T08:46:03;7.45;;;3.47;;
43529;SDS011;55654;50.966;6.878;2023-05-28T08:48:30;11.52;;;3.40;;
43529;SDS011;55654;50.966;6.878;2023-05-28T08:51:02;7.90;;;3.67;;
43529;SDS011;55654;50.966;6.878;2023-05-28T08:53:32;12.55;;;4.32;;
43529;SDS011;55654;50.966;6.878;2023-05-28T08:56:04;8.63;;;3.78;;
43529;SDS011;55654;50.966;6.878;2023-05-28T08:58:33;6.85;;;3.30;;
43529;SDS011;55654;50.966;6.878;2023-05-28T09:01:07;11.15;;;3.53;;
43529;SDS011;55654;50.966;6.878;2023-05-28T09:03:34;8.90;;;4.13;;
43529;SDS011;55654;50.966;6.878;2023-05-28T09:06:01;7.63;;;3.20;;
43529;SDS011;55654;50.966;6.878;2023-05-28T09:08:27;6.60;;;3.20;;
43529;SDS011;55654;50.966;6.878;2023-05-28T09:10:55;9.95;;;3.58;;
43529;SDS011;55654;50.966;6.878;2023-05-28T09:13:21;11.20;;;4.22;;
43529;SDS011;55654;50.966;6.878;2023-05-28T09:15:50;7.20;;;3.38;;
43529;SDS011;55654;50.966;6.878;2023-05-28T09:18:22;9.52;;;4.95;;
43529;SDS011;55654;50.966;6.878;2023-05-28T09:20:48;8.52;;;4.03;;
43529;SDS011;55654;50.966;6.878;2023-05-28T09:23:16;8.88;;;3.78;;
43529;SDS011;55654;50.966;6.878;2023-05-28T09:25:43;7.72;;;3.63;;
43529;SDS011;55654;50.966;6.878;2023-05-28T09:28:11;9.65;;;4.53;;
43529;SDS011;55654;50.966;6.878;2023-05-28T09:30:40;9.57;;;3.38;;
43529;SDS011;55654;50.966;6.878;2023-05-28T09:33:07;13.43;;;3.88;;
43529;SDS011;55654;50.966;6.878;2023-05-28T09:35:34;8.90;;;3.65;;
43529;SDS011;55654;50.966;6.878;2023-05-28T09:38:07;8.05;;;4.03;;
43529;SDS011;55654;50.966;6.878;2023-05-28T09:40:44;9.55;;;3.70;;
43529;SDS011;55654;50.966;6.878;2023-05-28T09:43:11;8.50;;;3.63;;
43529;SDS011;55654;50.966;6.878;2023-05-28T09:45:37;8.40;;;3.63;;
43529;SDS011;55654;50.966;6.878;2023-05-28T09:48:03;6.75;;;3.65;;
43529;SDS011;55654;50.966;6.878;2023-05-28T09:50:29;8.25;;;3.38;;
43529;SDS011;55654;50.966;6.878;2023-05-28T09:52:56;9.40;;;3.35;;
43529;SDS011;55654;50.966;6.878;2023-05-28T09:55:23;7.30;;;3.38;;
43529;SDS011;55654;50.966;6.878;2023-05-28T09:58:03;9.43;;;3.50;;
43529;SDS011;55654;50.966;6.878;2023-05-28T10:00:31;10.27;;;3.70;;
43529;SDS011;55654;50.966;6.878;2023-05-28T10:05:44;11.50;;;3.40;;
43529;SDS011;55654;50.966;6.878;2023-05-28T10:08:16;7.72;;;3.53;;
43529;SDS011;55654;50.966;6.878;2023-05-28T10:10:44;13.55;;;3.75;;
43529;SDS011;55654;50.966;6.878;2023-05-28T10:13:14;7.53;;;3.10;;
43529;SDS011;55654;50.966;6.878;2023-05-28T10:15:41;7.13;;;3.22;;
43529;SDS011;55654;50.966;6.878;2023-05-28T10:18:07;5.90;;;3.35;;
43529;SDS011;55654;50.966;6.878;2023-05-28T10:20:34;7.82;;;3.15;;
43529;SDS011;55654;50.966;6.878;2023-05-28T10:23:00;5.47;;;3.05;;
43529;SDS011;55654;50.966;6.878;2023-05-28T10:25:26;10.93;;;3.53;;
43529;SDS011;55654;50.966;6.878;2023-05-28T10:27:59;6.13;;;3.08;;
43529;SDS011;55654;50.966;6.878;2023-05-28T10:30:32;7.90;;;3.63;;
43529;SDS011;55654;50.966;6.878;2023-05-28T10:32:59;8.27;;;3.60;;
43529;SDS011;55654;50.966;6.878;2023-05-28T10:35:28;6.43;;;3.38;;
43529;SDS011;55654;50.966;6.878;2023-05-28T10:38:06;6.40;;;3.10;;
43529;SDS011;55654;50.966;6.878;2023-05-28T10:40:34;5.90;;;2.72;;
43529;SDS011;55654;50.966;6.878;2023-05-28T10:49:05;5.10;;;3.03;;
43529;SDS011;55654;50.966;6.878;2023-05-28T11:02:32;4.68;;;3.00;;
43529;SDS011;55654;50.966;6.878;2023-05-28T11:04:59;5.43;;;2.80;;
43529;SDS011;55654;50.966;6.878;2023-05-28T11:09:55;7.47;;;3.63;;
43529;SDS011;55654;50.966;6.878;2023-05-28T11:12:31;4.70;;;2.70;;
43529;SDS011;55654;50.966;6.878;2023-05-28T11:14:57;8.75;;;3.65;;
43529;SDS011;55654;50.966;6.878;2023-05-28T11:17:22;6.07;;;2.97;;
43529;SDS011;55654;50.966;6.878;2023-05-28T11:19:49;7.88;;;2.90;;
43529;SDS011;55654;50.966;6.878;2023-05-28T11:22:16;6.30;;;2.70;;
43529;SDS011;55654;50.966;6.878;2023-05-28T11:27:25;6.57;;;3.33;;
43529;SDS011;55654;50.966;6.878;2023-05-28T11:29:55;6.93;;;2.90;;
43529;SDS011;55654;50.966;6.878;2023-05-28T11:32:23;5.50;;;3.15;;
43529;SDS011;55654;50.966;6.878;2023-05-28T11:34:50;8.90;;;3.78;;
43529;SDS011;55654;50.966;6.878;2023-05-28T11:37:21;7.90;;;3.22;;
43529;SDS011;55654;50.966;6.878;2023-05-28T11:39:51;8.30;;;3.30;;
43529;SDS011;55654;50.966;6.878;2023-05-28T11:42:18;7.13;;;3.20;;
43529;SDS011;55654;50.966;6.878;2023-05-28T11:44:47;6.15;;;3.08;;
43529;SDS011;55654;50.966;6.878;2023-05-28T11:47:13;6.82;;;3.33;;
43529;SDS011;55654;50.966;6.878;2023-05-28T11:49:40;5.93;;;3.47;;
43529;SDS011;55654;50.966;6.878;2023-05-28T11:52:16;9.95;;;3.05;;
43529;SDS011;55654;50.966;6.878;2023-05-28T11:55:07;7.85;;;3.22;;
43529;SDS011;55654;50.966;6.878;2023-05-28T11:57:32;7.28;;;3.50;;
43529;SDS011;55654;50.966;6.878;2023-05-28T12:00:08;4.97;;;3.28;;
43529;SDS011;55654;50.966;6.878;2023-05-28T12:02:48;8.48;;;3.50;;
43529;SDS011;55654;50.966;6.878;2023-05-28T12:05:15;8.10;;;3.30;;
43529;SDS011;55654;50.966;6.878;2023-05-28T12:07:46;6.97;;;3.15;;
43529;SDS011;55654;50.966;6.878;2023-05-28T12:10:13;6.30;;;3.47;;
43529;SDS011;55654;50.966;6.878;2023-05-28T12:12:45;5.68;;;3.10;;
43529;SDS011;55654;50.966;6.878;2023-05-28T12:15:12;7.60;;;3.40;;
43529;SDS011;55654;50.966;6.878;2023-05-28T12:17:42;11.60;;;3.47;;
43529;SDS011;55654;50.966;6.878;2023-05-28T12:22:40;7.00;;;3.30;;
43529;SDS011;55654;50.966;6.878;2023-05-28T12:25:06;5.60;;;3.22;;
43529;SDS011;55654;50.966;6.878;2023-05-28T12:27:32;6.75;;;3.03;;
43529;SDS011;55654;50.966;6.878;2023-05-28T12:30:01;7.10;;;3.17;;
43529;SDS011;55654;50.966;6.878;2023-05-28T12:32:27;8.05;;;2.70;;
43529;SDS011;55654;50.966;6.878;2023-05-28T12:34:55;6.13;;;3.30;;
43529;SDS011;55654;50.966;6.878;2023-05-28T12:37:24;7.78;;;3.15;;
43529;SDS011;55654;50.966;6.878;2023-05-28T12:39:50;7.05;;;3.58;;
43529;SDS011;55654;50.966;6.878;2023-05-28T12:42:17;5.28;;;3.00;;
43529;SDS011;55654;50.966;6.878;2023-05-28T12:44:42;7.55;;;3.10;;
43529;SDS011;55654;50.966;6.878;2023-05-28T12:47:09;6.68;;;3.65;;
43529;SDS011;55654;50.966;6.878;2023-05-28T12:49:34;7.22;;;3.15;;
43529;SDS011;55654;50.966;6.878;2023-05-28T12:52:00;6.13;;;3.03;;
43529;SDS011;55654;50.966;6.878;2023-05-28T12:54:26;5.93;;;3.10;;
43529;SDS011;55654;50.966;6.878;2023-05-28T12:56:51;8.95;;;3.45;;
43529;SDS011;55654;50.966;6.878;2023-05-28T12:59:23;6.93;;;3.47;;
43529;SDS011;55654;50.966;6.878;2023-05-28T13:01:50;5.00;;;3.08;;
43529;SDS011;55654;50.966;6.878;2023-05-28T13:04:21;5.95;;;3.00;;
43529;SDS011;55654;50.966;6.878;2023-05-28T13:06:47;6.40;;;3.35;;
43529;SDS011;55654;50.966;6.878;2023-05-28T13:09:16;6.00;;;3.50;;
43529;SDS011;55654;50.966;6.878;2023-05-28T13:11:43;9.25;;;3.63;;
43529;SDS011;55654;50.966;6.878;2023-05-28T13:14:09;5.70;;;3.40;;
43529;SDS011;55654;50.966;6.878;2023-05-28T13:16:35;6.95;;;3.15;;
43529;SDS011;55654;50.966;6.878;2023-05-28T13:19:02;6.25;;;3.63;;
43529;SDS011;55654;50.966;6.878;2023-05-28T13:21:30;6.63;;;3.35;;
43529;SDS011;55654;50.966;6.878;2023-05-28T13:23:57;5.20;;;3.03;;
43529;SDS011;55654;50.966;6.878;2023-05-28T13:26:27;5.70;;;3.38;;
43529;SDS011;55654;50.966;6.878;2023-05-28T13:28:54;6.53;;;3.65;;
43529;SDS011;55654;50.966;6.878;2023-05-28T13:31:20;5.30;;;3.28;;
43529;SDS011;55654;50.966;6.878;2023-05-28T13:33:46;9.48;;;3.85;;
43529;SDS011;55654;50.966;6.878;2023-05-28T13:36:11;4.60;;;2.70;;
43529;SDS011;55654;50.966;6.878;2023-05-28T13:38:38;5.50;;;3.17;;
43529;SDS011;55654;50.966;6.878;2023-05-28T13:41:12;5.60;;;2.88;;
43529;SDS011;55654;50.966;6.878;2023-05-28T13:43:38;4.38;;;2.85;;
43529;SDS011;55654;50.966;6.878;2023-05-28T13:46:04;7.97;;;3.20;;
43529;SDS011;55654;50.966;6.878;2023-05-28T13:48:30;6.60;;;3.20;;
43529;SDS011;55654;50.966;6.878;2023-05-28T13:50:59;5.90;;;3.08;;
43529;SDS011;55654;50.966;6.878;2023-05-28T13:53:26;6.97;;;2.70;;
43529;SDS011;55654;50.966;6.878;2023-05-28T13:55:55;8.13;;;2.85;;
43529;SDS011;55654;50.966;6.878;2023-05-28T13:58:22;5.72;;;2.92;;
43529;SDS011;55654;50.966;6.878;2023-05-28T14:00:48;11.32;;;3.03;;
43529;SDS011;55654;50.966;6.878;2023-05-28T14:03:14;4.15;;;2.53;;
43529;SDS011;55654;50.966;6.878;2023-05-28T14:05:42;6.22;;;3.22;;
43529;SDS011;55654;50.966;6.878;2023-05-28T14:08:11;5.80;;;2.80;;
43529;SDS011;55654;50.966;6.878;2023-05-28T14:10:37;4.35;;;2.83;;
43529;SDS011;55654;50.966;6.878;2023-05-28T14:13:03;7.10;;;3.38;;
43529;SDS011;55654;50.966;6.878;2023-05-28T14:15:29;9.40;;;3.38;;
43529;SDS011;55654;50.966;6.878;2023-05-28T14:17:54;7.00;;;2.92;;
43529;SDS011;55654;50.966;6.878;2023-05-28T14:20:20;7.47;;;2.83;;
43529;SDS011;55654;50.966;6.878;2023-05-28T14:22:46;6.40;;;2.78;;
43529;SDS011;55654;50.966;6.878;2023-05-28T14:25:11;5.05;;;3.05;;
43529;SDS011;55654;50.966;6.878;2023-05-28T14:27:37;4.40;;;3.10;;
43529;SDS011;55654;50.966;6.878;2023-05-28T14:30:03;7.85;;;3.38;;
43529;SDS011;55654;50.966;6.878;2023-05-28T14:32:32;4.45;;;2.70;;
43529;SDS011;55654;50.966;6.878;2023-05-28T14:34:59;5.53;;;3.20;;
43529;SDS011;55654;50.966;6.878;2023-05-28T14:37:25;6.47;;;3.88;;
43529;SDS011;55654;50.966;6.878;2023-05-28T14:39:50;5.25;;;3.00;;
43529;SDS011;55654;50.966;6.878;2023-05-28T14:42:16;7.55;;;3.55;;
43529;SDS011;55654;50.966;6.878;2023-05-28T14:44:41;4.55;;;3.22;;
43529;SDS011;55654;50.966;6.878;2023-05-28T14:47:07;5.95;;;3.20;;
43529;SDS011;55654;50.966;6.878;2023-05-28T14:49:33;4.10;;;2.90;;
43529;SDS011;55654;50.966;6.878;2023-05-28T14:51:58;7.90;;;2.90;;
43529;SDS011;55654;50.966;6.878;2023-05-28T14:54:49;4.78;;;3.13;;
43529;SDS011;55654;50.966;6.878;2023-05-28T14:57:14;7.30;;;3.00;;
43529;SDS011;55654;50.966;6.878;2023-05-28T14:59:40;4.30;;;2.28;;
43529;SDS011;55654;50.966;6.878;2023-05-28T15:02:06;4.43;;;2.50;;
43529;SDS011;55654;50.966;6.878;2023-05-28T15:04:31;6.95;;;2.65;;
43529;SDS011;55654;50.966;6.878;2023-05-28T15:06:57;6.55;;;2.80;;
43529;SDS011;55654;50.966;6.878;2023-05-28T15:09:25;5.90;;;2.70;;
43529;SDS011;55654;50.966;6.878;2023-05-28T15:11:51;5.15;;;2.35;;
43529;SDS011;55654;50.966;6.878;2023-05-28T15:14:17;5.35;;;2.58;;